Time;durP1;ratioP1;P1;durP2;ratioP2;P2;SDS_P1;SDS_P2;PMS_P1;PMS_P2;Temp;Humidity;BMP_temperature;BMP_pressure;BME280_temperature;BME280_humidity;BME280_pressure;Samples;Min_cycle;Max_cycle;Signal;HPM_P1;HPM_P2
2021/09/01 00:02:25;;;;;;;21.50;7.78;;;15.20;99.90;;;;;;6158939;23;20031;-78
2021/09/01 00:04:52;;;;;;;24.25;7.65;;;15.20;99.90;;;;;;6159882;23;20041;-80
2021/09/01 00:07:19;;;;;;;17.10;7.45;;;15.20;99.90;;;;;;6158848;23;20029;-79
2021/09/01 00:09:46;;;;;;;19.92;7.30;;;15.20;99.90;;;;;;6159780;23;20500;-79
2021/09/01 00:12:13;;;;;;;19.75;7.60;;;15.20;99.90;;;;;;6158764;23;20028;-80
2021/09/01 00:14:40;;;;;;;22.75;7.78;;;15.20;99.90;;;;;;6159740;23;20024;-80
2021/09/01 00:17:07;;;;;;;18.67;7.20;;;15.10;99.90;;;;;;6158536;23;20464;-80
2021/09/01 00:19:34;;;;;;;18.33;7.30;;;15.10;99.90;;;;;;6159755;23;20017;-78
2021/09/01 00:22:02;;;;;;;20.60;8.13;;;15.10;99.90;;;;;;6185390;23;20025;-80
2021/09/01 00:24:29;;;;;;;19.92;7.45;;;15.10;99.90;;;;;;6158523;23;20024;-81
2021/09/01 00:26:56;;;;;;;18.88;7.10;;;15.10;99.90;;;;;;6159907;23;20025;-79
2021/09/01 00:29:23;;;;;;;23.13;7.43;;;15.10;99.90;;;;;;6158660;23;20020;-81
2021/09/01 00:31:50;;;;;;;23.27;7.30;;;15.10;99.90;;;;;;6159660;23;20025;-80
2021/09/01 00:34:17;;;;;;;18.85;7.13;;;15.10;99.90;;;;;;6158629;23;20024;-80
2021/09/01 00:36:44;;;;;;;20.17;7.82;;;15.10;99.90;;;;;;6159574;23;20048;-79
2021/09/01 00:39:10;;;;;;;18.27;6.85;;;15.10;99.90;;;;;;6158546;23;20025;-80
2021/09/01 00:41:37;;;;;;;19.75;6.60;;;15.10;99.90;;;;;;6159683;23;20350;-78
2021/09/01 00:44:26;;;;;;;19.25;7.60;;;15.10;99.90;;;;;;6158656;23;20017;-77
2021/09/01 00:46:53;;;;;;;;;;;15.10;99.90;;;;;;6159762;23;20016;-81
2021/09/01 00:49:21;;;;;;;18.05;7.38;;;15.10;99.90;;;;;;6158400;23;20280;-77
2021/09/01 00:51:52;;;;;;;23.97;8.07;;;15.10;99.90;;;;;;6159662;23;20013;-80
2021/09/01 00:54:26;;;;;;;16.27;7.38;;;15.00;99.90;;;;;;6158563;23;20255;-81
2021/09/01 00:57:12;;;;;;;23.90;7.85;;;15.00;99.90;;;;;;6159443;23;20040;-80
2021/09/01 00:59:41;;;;;;;20.38;7.75;;;15.00;99.90;;;;;;6158215;23;20025;-78
2021/09/01 01:02:08;;;;;;;22.98;7.15;;;15.00;99.90;;;;;;6158312;23;20025;-80
2021/09/01 01:04:36;;;;;;;19.05;7.03;;;15.00;99.90;;;;;;6159359;23;20049;-79
2021/09/01 01:07:08;;;;;;;22.55;7.68;;;15.00;99.90;;;;;;6159275;23;20025;-80
2021/09/01 01:09:37;;;;;;;25.45;7.65;;;15.00;99.90;;;;;;6188308;23;20017;-80
2021/09/01 01:12:04;;;;;;;18.73;7.30;;;15.00;99.90;;;;;;6188622;23;20028;-80
2021/09/01 01:14:39;;;;;;;23.48;7.55;;;15.00;99.90;;;;;;6187983;23;20078;-80
2021/09/01 01:17:07;;;;;;;18.52;6.93;;;15.00;99.90;;;;;;6188323;23;20016;-80
2021/09/01 01:19:39;;;;;;;17.58;7.90;;;15.00;99.90;;;;;;6188780;23;20028;-80
2021/09/01 01:22:08;;;;;;;25.00;7.82;;;15.00;99.90;;;;;;6187673;23;20024;-79
2021/09/01 01:24:53;;;;;;;21.13;7.20;;;15.00;99.90;;;;;;6188707;23;20074;-81
2021/09/01 01:27:35;;;;;;;20.30;7.60;;;15.00;99.90;;;;;;6187872;23;20021;-81
2021/09/01 01:30:12;;;;;;;21.50;7.82;;;15.00;99.90;;;;;;6188913;23;20025;-79
2021/09/01 01:32:41;;;;;;;21.30;7.78;;;15.00;99.90;;;;;;6187923;23;20024;-80
2021/09/01 01:35:09;;;;;;;25.00;7.68;;;14.90;99.90;;;;;;6187966;23;20075;-81
2021/09/01 01:37:38;;;;;;;16.05;6.85;;;14.90;99.90;;;;;;6188551;23;20039;-80
2021/09/01 01:40:05;;;;;;;;;;;14.90;99.90;;;;;;6188315;23;20095;-79
2021/09/01 01:42:39;;;;;;;21.20;7.35;;;14.90;99.90;;;;;;6188531;23;20268;-79
2021/09/01 01:45:06;;;;;;;19.27;7.43;;;14.90;99.90;;;;;;6187362;23;20020;-76
2021/09/01 01:47:34;;;;;;;27.57;7.80;;;14.90;99.90;;;;;;6188798;23;20040;-80
2021/09/01 01:50:00;;;;;;;23.45;7.35;;;14.90;99.90;;;;;;6188326;23;20337;-80
2021/09/01 01:52:27;;;;;;;23.67;7.40;;;14.90;99.90;;;;;;6187504;23;20070;-79
2021/09/01 01:54:54;;;;;;;20.48;8.25;;;14.90;99.90;;;;;;6188417;23;20465;-77
2021/09/01 01:57:21;;;;;;;21.35;7.95;;;14.80;99.90;;;;;;6187228;23;20024;-80
2021/09/01 01:59:48;;;;;;;23.25;7.95;;;14.90;99.90;;;;;;6188223;23;20024;-81
2021/09/01 02:02:15;;;;;;;26.60;8.02;;;14.90;99.90;;;;;;6187579;23;20016;-79
2021/09/01 02:04:42;;;;;;;20.33;7.95;;;14.90;99.90;;;;;;6188469;23;20020;-80
2021/09/01 02:07:09;;;;;;;23.63;8.20;;;14.90;99.90;;;;;;6187012;23;20068;-77
2021/09/01 02:09:36;;;;;;;20.48;8.23;;;14.80;99.90;;;;;;6188438;23;20024;-78
2021/09/01 02:12:03;;;;;;;22.15;7.95;;;14.80;99.90;;;;;;6188346;23;20021;-80
2021/09/01 02:14:30;;;;;;;20.10;8.70;;;14.80;99.90;;;;;;6187379;23;20020;-79
2021/09/01 02:16:57;;;;;;;20.42;7.68;;;14.80;99.90;;;;;;6188025;23;20021;-80
2021/09/01 02:19:24;;;;;;;24.15;8.25;;;14.80;99.90;;;;;;6187404;23;20032;-80
2021/09/01 02:21:51;;;;;;;24.23;8.90;;;14.80;99.90;;;;;;6188172;23;20023;-77
2021/09/01 02:24:18;;;;;;;17.33;7.80;;;14.80;99.90;;;;;;6187504;23;20028;-81
2021/09/01 02:26:44;;;;;;;26.58;8.75;;;14.80;99.90;;;;;;6188246;23;20020;-80
2021/09/01 02:29:11;;;;;;;26.13;8.95;;;14.80;99.90;;;;;;6187145;23;20023;-77
2021/09/01 02:31:38;;;;;;;26.25;8.85;;;14.80;99.90;;;;;;6187812;23;20028;-80
2021/09/01 02:34:05;;;;;;;18.48;8.40;;;14.80;99.90;;;;;;6187306;23;20012;-79
2021/09/01 02:36:32;;;;;;;18.13;9.20;;;14.80;99.90;;;;;;6187764;23;20075;-80
2021/09/01 02:38:59;;;;;;;17.15;8.50;;;14.80;99.90;;;;;;6188004;23;20074;-80
2021/09/01 02:41:26;;;;;;;20.17;8.93;;;14.80;99.90;;;;;;6187066;23;20016;-80
2021/09/01 02:43:53;;;;;;;23.90;8.82;;;14.80;99.90;;;;;;6188044;23;20021;-78
2021/09/01 02:46:21;;;;;;;18.23;8.93;;;14.80;99.90;;;;;;6187152;23;20372;-80
2021/09/01 02:48:49;;;;;;;29.17;8.98;;;14.80;99.90;;;;;;6188189;23;20039;-78
2021/09/01 02:51:16;;;;;;;20.83;9.93;;;14.80;99.90;;;;;;6187052;23;20381;-81
2021/09/01 02:53:43;;;;;;;19.30;9.20;;;14.80;99.90;;;;;;6188234;23;20012;-78
2021/09/01 02:56:10;;;;;;;27.60;9.98;;;14.80;99.90;;;;;;6186990;23;20024;-79
2021/09/01 02:58:37;;;;;;;23.65;9.50;;;14.80;99.90;;;;;;6182195;23;20025;-79
2021/09/01 03:01:04;;;;;;;24.70;9.93;;;14.80;99.90;;;;;;6181541;23;20032;-79
2021/09/01 03:03:32;;;;;;;25.35;10.60;;;14.80;99.90;;;;;;6182393;23;20366;-81
2021/09/01 03:05:59;;;;;;;22.80;10.15;;;14.80;99.90;;;;;;6182875;23;20017;-80
2021/09/01 03:08:26;;;;;;;23.27;10.43;;;14.80;99.90;;;;;;6183587;23;20441;-79
2021/09/01 03:10:52;;;;;;;24.40;10.75;;;14.80;99.90;;;;;;6184441;23;20025;-80
2021/09/01 03:13:20;;;;;;;28.83;11.40;;;14.80;99.90;;;;;;6181976;23;20028;-80
2021/09/01 03:15:47;;;;;;;19.98;10.23;;;14.80;99.90;;;;;;6182745;23;20469;-80
2021/09/01 03:18:15;;;;;;;24.90;11.45;;;14.80;99.90;;;;;;6182116;23;20025;-79
2021/09/01 03:20:41;;;;;;;27.17;11.00;;;14.70;99.90;;;;;;6184650;23;20013;-80
2021/09/01 03:23:08;;;;;;;24.60;11.68;;;14.80;99.90;;;;;;6182049;23;20028;-77
2021/09/01 03:25:35;;;;;;;26.42;11.63;;;14.70;99.90;;;;;;6182750;23;20017;-80
2021/09/01 03:28:02;;;;;;;27.23;11.18;;;14.70;99.90;;;;;;6182688;23;20017;-78
2021/09/01 03:30:29;;;;;;;30.92;12.18;;;14.80;99.90;;;;;;6181927;23;20025;-79
2021/09/01 03:32:57;;;;;;;25.15;11.90;;;14.70;99.90;;;;;;6182764;23;20025;-80
2021/09/01 03:35:24;;;;;;;22.80;11.00;;;14.80;99.90;;;;;;6181869;23;20071;-80
2021/09/01 03:37:51;;;;;;;25.63;11.93;;;14.70;99.90;;;;;;6182251;23;20076;-80
2021/09/01 03:40:18;;;;;;;23.30;11.60;;;14.70;99.90;;;;;;6181927;23;20032;-80
2021/09/01 03:42:44;;;;;;;31.08;13.13;;;14.70;99.90;;;;;;6182733;23;20052;-78
2021/09/01 03:45:12;;;;;;;29.42;12.70;;;14.70;99.90;;;;;;6181170;23;20025;-80
2021/09/01 03:47:39;;;;;;;22.85;12.65;;;14.70;99.90;;;;;;6182716;23;20028;-80
2021/09/01 03:50:07;;;;;;;33.38;13.48;;;14.70;99.90;;;;;;6181507;23;20079;-79
2021/09/01 03:52:34;;;;;;;25.08;13.70;;;14.70;99.90;;;;;;6182301;23;20017;-77
2021/09/01 03:55:02;;;;;;;25.98;12.80;;;14.70;99.90;;;;;;6182612;23;20013;-78
2021/09/01 03:57:30;;;;;;;24.95;13.30;;;14.70;99.90;;;;;;6185874;23;20434;-80
2021/09/01 03:59:59;;;;;;;21.17;12.88;;;14.70;99.90;;;;;;6187243;23;20338;-77
2021/09/01 04:02:25;;;;;;;;;;;14.70;99.90;;;;;;6186876;23;20032;-78
2021/09/01 04:04:52;;;;;;;25.67;14.07;;;14.60;99.90;;;;;;6187859;23;19969;-80
2021/09/01 04:07:19;;;;;;;27.65;13.75;;;14.60;99.90;;;;;;6186807;23;20012;-79
2021/09/01 04:09:46;;;;;;;24.02;13.63;;;14.60;99.90;;;;;;6189089;23;20017;-80
2021/09/01 04:12:13;;;;;;;25.83;13.95;;;14.60;99.90;;;;;;6188486;23;20084;-78
2021/09/01 04:14:40;;;;;;;26.42;13.52;;;14.60;99.90;;;;;;6189347;23;20646;-80
2021/09/01 04:17:07;;;;;;;22.13;12.65;;;14.60;99.90;;;;;;6188598;23;20021;-78
2021/09/01 04:19:36;;;;;;;23.45;12.95;;;14.60;99.90;;;;;;6189374;23;20025;-80
2021/09/01 04:22:04;;;;;;;25.80;13.80;;;14.70;99.90;;;;;;6189090;23;20057;-81
2021/09/01 04:24:31;;;;;;;25.70;13.90;;;14.70;99.90;;;;;;6188338;23;20020;-81
2021/09/01 04:26:58;;;;;;;25.77;13.82;;;14.70;99.90;;;;;;6189621;23;20024;-80
2021/09/01 04:29:25;;;;;;;29.63;14.25;;;14.70;99.90;;;;;;6188451;23;20020;-77
2021/09/01 04:31:52;;;;;;;27.10;14.32;;;14.70;99.90;;;;;;6189306;23;20027;-80
2021/09/01 04:34:19;;;;;;;26.25;14.07;;;14.70;99.90;;;;;;6188183;23;20299;-80
2021/09/01 04:36:46;;;;;;;25.10;14.10;;;14.60;99.90;;;;;;6189281;23;20020;-80
2021/09/01 04:39:13;;;;;;;23.13;13.88;;;14.60;99.90;;;;;;6188318;23;20024;-80
2021/09/01 04:41:40;;;;;;;25.90;13.63;;;14.60;99.90;;;;;;6189363;23;20017;-81
2021/09/01 04:44:06;;;;;;;28.10;14.95;;;14.60;99.90;;;;;;6188516;23;20020;-79
2021/09/01 04:46:33;;;;;;;21.67;14.00;;;14.60;99.90;;;;;;6189301;23;20021;-79
2021/09/01 04:49:00;;;;;;;27.88;14.82;;;14.60;99.90;;;;;;6189035;23;20012;-80
2021/09/01 04:51:27;;;;;;;26.63;14.00;;;14.60;99.90;;;;;;6187839;23;20021;-80
2021/09/01 04:53:54;;;;;;;30.52;15.07;;;14.60;99.90;;;;;;6189144;23;20020;-79
2021/09/01 04:56:21;;;;;;;30.05;15.52;;;14.60;99.90;;;;;;6188675;23;20020;-76
2021/09/01 04:58:48;;;;;;;22.10;14.35;;;14.60;99.90;;;;;;6189025;23;20028;-79
2021/09/01 05:01:15;;;;;;;27.73;15.43;;;14.60;99.90;;;;;;6187899;23;20016;-78
2021/09/01 05:03:42;;;;;;;23.95;14.68;;;14.60;99.90;;;;;;6188919;23;20021;-80
2021/09/01 05:06:09;;;;;;;21.40;14.43;;;14.60;99.90;;;;;;6188174;23;20024;-81
2021/09/01 05:08:36;;;;;;;30.73;15.23;;;14.50;99.90;;;;;;6189124;23;20025;-79
2021/09/01 05:11:03;;;;;;;32.22;15.32;;;14.50;99.90;;;;;;6189266;23;20369;-78
2021/09/01 05:13:30;;;;;;;26.20;14.63;;;14.50;99.90;;;;;;6181227;23;20449;-80
2021/09/01 05:15:58;;;;;;;23.95;15.90;;;14.50;99.90;;;;;;6214986;23;20075;-78
2021/09/01 05:18:25;;;;;;;31.27;15.40;;;14.50;99.90;;;;;;6187715;23;20025;-79
2021/09/01 05:20:58;;;;;;;29.15;15.65;;;14.50;99.90;;;;;;6215388;23;20804;-79
2021/09/01 05:23:39;;;;;;;29.30;15.07;;;14.50;99.90;;;;;;6187043;23;20037;-79
2021/09/01 05:26:07;;;;;;;34.83;16.35;;;14.50;99.90;;;;;;6186845;23;20484;-80
2021/09/01 05:28:36;;;;;;;26.83;14.35;;;14.50;99.90;;;;;;6188911;23;20083;-80
2021/09/01 05:31:05;;;;;;;23.17;14.23;;;14.50;99.90;;;;;;6188317;23;20020;-79
2021/09/01 05:33:38;;;;;;;31.35;16.17;;;14.50;99.90;;;;;;6187831;23;20108;-80
2021/09/01 05:36:05;;;;;;;23.55;15.45;;;14.50;99.90;;;;;;6187553;23;20024;-79
2021/09/01 05:38:33;;;;;;;28.17;15.70;;;14.50;99.90;;;;;;6188309;23;20454;-80
2021/09/01 05:41:02;;;;;;;33.33;17.13;;;14.50;99.90;;;;;;6188555;23;20020;-78
2021/09/01 05:43:29;;;;;;;27.98;16.10;;;14.50;99.90;;;;;;6188365;23;20020;-77
2021/09/01 05:45:56;;;;;;;32.67;16.67;;;14.50;99.90;;;;;;6188425;23;20031;-79
2021/09/01 05:48:23;;;;;;;28.38;16.02;;;14.50;99.90;;;;;;6187890;23;20040;-78
2021/09/01 05:50:55;;;;;;;23.38;14.90;;;14.50;99.90;;;;;;6188629;23;20020;-77
2021/09/01 05:53:23;;;;;;;27.60;15.82;;;14.50;99.90;;;;;;6187625;23;20027;-77
2021/09/01 05:55:52;;;;;;;30.60;17.00;;;14.50;99.90;;;;;;6188295;23;20074;-78
2021/09/01 05:58:20;;;;;;;31.45;17.45;;;14.50;99.90;;;;;;6212869;23;20075;-78
2021/09/01 06:00:57;;;;;;;24.60;16.58;;;14.50;99.90;;;;;;6187335;23;20075;-79
2021/09/01 06:03:31;;;;;;;29.52;17.00;;;14.60;99.90;;;;;;6186465;23;20025;-78
2021/09/01 06:06:01;;;;;;;26.77;16.15;;;14.50;99.90;;;;;;6187751;23;20361;-78
2021/09/01 06:08:35;;;;;;;30.85;15.98;;;14.60;99.90;;;;;;6187522;23;20035;-78
2021/09/01 06:11:05;;;;;;;28.30;16.92;;;14.60;99.90;;;;;;6188350;23;20032;-78
2021/09/01 06:13:32;;;;;;;32.05;16.63;;;14.60;99.90;;;;;;6187524;23;20064;-79
2021/09/01 06:16:10;;;;;;;24.40;15.70;;;14.60;99.90;;;;;;6188682;23;20039;-83
2021/09/01 06:18:37;;;;;;;28.92;16.38;;;14.70;99.90;;;;;;6187257;23;20087;-80
2021/09/01 06:21:04;;;;;;;29.45;16.25;;;14.70;99.90;;;;;;6187479;23;20016;-78
2021/09/01 06:23:31;;;;;;;31.77;16.42;;;14.70;99.90;;;;;;6188442;23;20021;-76
2021/09/01 06:25:58;;;;;;;27.27;16.17;;;14.80;99.90;;;;;;6188134;23;20020;-79
2021/09/01 06:28:25;;;;;;;28.90;16.65;;;14.80;99.90;;;;;;6187149;23;20414;-80
2021/09/01 06:30:52;;;;;;;32.72;17.13;;;14.80;99.90;;;;;;6188278;23;20013;-79
2021/09/01 06:33:19;;;;;;;28.73;16.30;;;14.90;99.90;;;;;;6187355;23;20017;-77
2021/09/01 06:35:48;;;;;;;21.63;14.80;;;14.90;99.90;;;;;;6188399;23;20334;-80
2021/09/01 06:38:15;;;;;;;26.63;17.08;;;15.00;99.90;;;;;;6187006;23;20025;-80
2021/09/01 06:40:42;;;;;;;23.48;16.38;;;15.00;99.90;;;;;;6188088;23;20021;-79
2021/09/01 06:43:11;;;;;;;34.65;17.33;;;15.10;99.90;;;;;;6187170;23;20020;-77
2021/09/01 06:45:40;;;;;;;25.15;15.80;;;15.20;99.90;;;;;;6188032;23;20361;-79
2021/09/01 06:48:10;;;;;;;25.50;16.17;;;15.20;99.90;;;;;;6187323;23;20092;-79
2021/09/01 06:50:37;;;;;;;22.42;15.73;;;15.20;99.90;;;;;;6188409;23;20023;-80
2021/09/01 06:53:04;;;;;;;28.48;16.23;;;15.30;99.90;;;;;;6187311;23;20016;-76
2021/09/01 06:55:31;;;;;;;26.92;16.50;;;15.40;99.90;;;;;;6188057;23;20013;-78
2021/09/01 06:57:58;;;;;;;26.98;16.52;;;15.40;99.90;;;;;;6182459;23;20021;-79
2021/09/01 07:00:25;;;;;;;21.88;15.10;;;15.50;99.90;;;;;;6181574;23;20028;-79
2021/09/01 07:02:52;;;;;;;24.13;16.52;;;15.50;99.90;;;;;;6182631;23;20330;-78
2021/09/01 07:05:19;;;;;;;26.55;16.15;;;15.60;99.90;;;;;;6181905;23;20025;-79
2021/09/01 07:07:46;;;;;;;25.55;15.40;;;15.70;99.90;;;;;;6182616;23;20021;-79
2021/09/01 07:10:14;;;;;;;22.05;16.77;;;15.80;99.90;;;;;;6181987;23;20075;-80
2021/09/01 07:12:41;;;;;;;23.98;16.38;;;15.80;99.90;;;;;;6182760;23;20021;-80
2021/09/01 07:15:09;;;;;;;25.27;15.85;;;15.90;99.90;;;;;;6182050;23;20021;-80
2021/09/01 07:17:38;;;;;;;22.88;14.98;;;16.00;99.90;;;;;;6182945;23;20088;-78
2021/09/01 07:20:06;;;;;;;22.02;15.27;;;16.00;99.90;;;;;;6182641;23;20028;-81
2021/09/01 07:22:33;;;;;;;24.70;15.68;;;16.10;99.90;;;;;;6181855;23;20034;-79
2021/09/01 07:25:00;;;;;;;20.30;14.50;;;16.20;99.90;;;;;;6182881;23;20017;-77
2021/09/01 07:27:27;;;;;;;20.17;15.00;;;16.30;99.90;;;;;;6181823;23;20385;-79
2021/09/01 07:29:54;;;;;;;25.02;15.10;;;16.40;99.90;;;;;;6182891;23;20028;-80
2021/09/01 07:32:21;;;;;;;25.23;15.55;;;16.40;99.90;;;;;;6181960;23;20075;-80
2021/09/01 07:34:48;;;;;;;22.60;14.43;;;16.60;99.90;;;;;;6182559;23;20091;-80
2021/09/01 07:37:15;;;;;;;27.73;15.05;;;16.70;99.90;;;;;;6181676;23;20641;-79
2021/09/01 07:39:42;;;;;;;24.10;14.57;;;16.70;99.90;;;;;;6181862;23;20330;-80
2021/09/01 07:42:09;;;;;;;20.13;13.82;;;16.90;99.90;;;;;;6178968;23;20025;-79
2021/09/01 07:44:36;;;;;;;21.80;13.13;;;17.00;99.90;;;;;;6181339;23;20028;-80
2021/09/01 07:47:03;;;;;;;18.90;13.30;;;17.10;99.90;;;;;;6181629;23;20539;-78
2021/09/01 07:49:30;;;;;;;19.17;12.63;;;17.10;99.90;;;;;;6181982;23;20071;-79
2021/09/01 07:51:57;;;;;;;20.50;13.50;;;17.30;99.90;;;;;;6181791;23;20083;-80
2021/09/01 07:54:24;;;;;;;15.70;11.18;;;17.40;99.90;;;;;;6180953;23;20032;-78
2021/09/01 07:56:51;;;;;;;22.73;15.32;;;17.50;99.90;;;;;;6181905;23;20080;-79
2021/09/01 07:59:18;;;;;;;17.77;12.68;;;17.60;99.90;;;;;;6180339;23;20029;-79
2021/09/01 08:01:45;;;;;;;19.45;13.13;;;17.70;99.90;;;;;;6181300;23;20020;-80
2021/09/01 08:04:12;;;;;;;17.67;12.63;;;17.80;99.90;;;;;;6180820;23;20064;-80
2021/09/01 08:06:39;;;;;;;20.02;13.52;;;17.90;99.90;;;;;;6181491;23;20354;-80
2021/09/01 08:09:06;;;;;;;14.88;12.82;;;18.00;99.90;;;;;;6180343;23;20747;-79
2021/09/01 08:11:33;;;;;;;18.67;12.98;;;18.10;99.90;;;;;;6181693;23;20017;-80
2021/09/01 08:14:01;;;;;;;16.08;11.77;;;18.20;99.90;;;;;;6181862;23;20116;-80
2021/09/01 08:16:28;;;;;;;17.85;12.25;;;18.30;99.90;;;;;;6180823;23;20023;-78
2021/09/01 08:18:55;;;;;;;17.05;12.15;;;18.40;99.90;;;;;;6181439;23;20025;-78
2021/09/01 08:21:22;;;;;;;18.95;11.82;;;18.50;99.90;;;;;;6180226;23;20072;-81
2021/09/01 08:23:49;;;;;;;22.17;12.52;;;18.60;99.90;;;;;;6181751;23;20017;-79
2021/09/01 08:26:16;;;;;;;22.60;12.70;;;18.60;99.90;;;;;;6180228;23;20021;-80
2021/09/01 08:28:43;;;;;;;16.77;12.00;;;18.70;99.90;;;;;;6181593;23;20113;-79
2021/09/01 08:31:10;;;;;;;16.80;11.80;;;18.80;99.90;;;;;;6180300;23;20024;-79
2021/09/01 08:33:37;;;;;;;15.68;11.27;;;18.90;99.90;;;;;;6181507;23;20025;-79
2021/09/01 08:36:05;;;;;;;14.88;11.65;;;19.00;99.90;;;;;;6180305;23;20020;-76
2021/09/01 08:38:32;;;;;;;17.85;11.10;;;19.10;99.90;;;;;;6181581;23;20021;-80
2021/09/01 08:41:00;;;;;;;18.92;12.15;;;19.20;99.90;;;;;;6181369;23;20088;-80
2021/09/01 08:43:27;;;;;;;14.65;10.95;;;19.30;99.90;;;;;;6182011;23;20044;-80
2021/09/01 08:45:54;;;;;;;15.73;11.40;;;19.40;99.90;;;;;;6181265;23;20021;-80
2021/09/01 08:48:24;;;;;;;15.35;11.52;;;19.50;99.90;;;;;;6180554;23;20067;-81
2021/09/01 08:50:51;;;;;;;14.38;11.35;;;19.50;99.90;;;;;;6180990;23;20024;-78
2021/09/01 08:53:18;;;;;;;16.30;11.40;;;19.50;99.90;;;;;;6182726;23;20024;-81
2021/09/01 08:55:49;;;;;;;15.30;11.82;;;19.60;99.90;;;;;;6170155;23;20013;-81
2021/09/01 08:58:17;;;;;;;18.58;13.00;;;19.70;99.90;;;;;;6168129;23;20021;-78
2021/09/01 09:00:44;;;;;;;15.33;10.80;;;19.80;99.90;;;;;;6161571;23;20024;-81
2021/09/01 09:03:12;;;;;;;16.65;11.10;;;19.80;99.90;;;;;;6181623;23;20252;-80
2021/09/01 09:05:41;;;;;;;14.57;11.77;;;19.80;99.90;;;;;;6183315;23;20088;-81
2021/09/01 09:08:14;;;;;;;17.67;10.60;;;19.90;99.90;;;;;;6182093;23;20092;-81
2021/09/01 09:10:46;;;;;;;13.30;10.77;;;20.00;99.90;;;;;;6183559;23;20025;-79
2021/09/01 09:13:33;;;;;;;13.70;10.55;;;20.10;99.90;;;;;;6181897;23;20096;-78
2021/09/01 09:16:14;;;;;;;15.15;11.55;;;20.20;99.90;;;;;;6103322;23;20044;-80
2021/09/01 09:18:43;;;;;;;16.25;11.32;;;20.30;99.90;;;;;;6170031;23;20052;-80
2021/09/01 09:21:22;;;;;;;16.97;10.80;;;20.40;99.90;;;;;;6182026;23;20020;-81
2021/09/01 09:23:51;;;;;;;16.50;11.15;;;20.50;99.90;;;;;;6182588;23;20017;-81
2021/09/01 09:26:33;;;;;;;;;;;20.60;99.90;;;;;;6182832;23;20028;-81
2021/09/01 09:29:09;;;;;;;16.23;11.38;;;20.60;99.90;;;;;;6182683;23;19916;-81
2021/09/01 09:31:38;;;;;;;16.58;10.43;;;20.70;99.90;;;;;;6154824;23;20024;-79
2021/09/01 09:34:33;;;;;;;19.00;12.02;;;20.90;99.90;;;;;;6164459;23;20067;-79
2021/09/01 09:37:04;;;;;;;15.55;10.77;;;20.90;99.90;;;;;;6178852;23;20507;-80
2021/09/01 09:39:46;;;;;;;14.77;11.23;;;20.90;99.90;;;;;;6181402;23;20027;-81
2021/09/01 09:42:46;;;;;;;13.88;10.27;;;20.90;99.90;;;;;;6170072;23;20033;-82
2021/09/01 09:45:25;;;;;;;14.70;11.52;;;21.00;99.90;;;;;;6179238;23;20021;-81
2021/09/01 09:47:56;;;;;;;15.73;11.52;;;21.10;99.90;;;;;;6170738;23;20024;-82
2021/09/01 09:50:29;;;;;;;17.33;10.45;;;21.20;99.90;;;;;;6151856;23;20021;-79
2021/09/01 09:52:59;;;;;;;16.60;10.68;;;21.20;99.90;;;;;;6172258;23;20021;-81
2021/09/01 09:55:28;;;;;;;16.42;10.88;;;21.30;99.90;;;;;;6181552;23;20418;-82
2021/09/01 09:58:08;;;;;;;14.30;10.68;;;21.40;99.90;;;;;;6182736;23;20032;-82
2021/09/01 10:00:50;;;;;;;16.02;11.88;;;21.40;99.90;;;;;;6165401;23;20097;-82
2021/09/01 10:03:19;;;;;;;14.90;10.40;;;21.30;99.90;;;;;;6166871;23;20075;-79
2021/09/01 10:10:47;;;;;;;13.77;10.25;;;21.20;99.90;;;;;;5759749;24;20033;-82
2021/09/01 10:13:16;;;;;;;14.60;9.80;;;21.30;99.90;;;;;;5808675;24;20325;-83
2021/09/01 10:15:42;;;;;;;15.23;10.02;;;21.40;99.90;;;;;;5815411;24;20019;-80
2021/09/01 10:18:23;;;;;;;15.70;10.10;;;21.40;99.90;;;;;;5858011;24;20021;-81
2021/09/01 10:20:51;;;;;;;10.87;9.20;;;21.40;99.90;;;;;;5924152;24;20475;-80
2021/09/01 10:23:34;;;;;;;13.77;9.90;;;21.40;99.90;;;;;;5923180;24;20028;-80
2021/09/01 10:26:01;;;;;;;11.25;9.85;;;21.30;99.90;;;;;;5923804;24;20025;-80
2021/09/01 10:28:28;;;;;;;14.75;10.57;;;21.40;99.90;;;;;;5922982;24;20029;-80
2021/09/01 10:31:16;;;;;;;12.45;9.70;;;21.40;99.90;;;;;;5901303;24;20029;-80
2021/09/01 10:33:48;;;;;;;12.93;8.93;;;21.50;99.90;;;;;;5900553;24;20443;-77
2021/09/01 10:36:24;;;;;;;14.07;9.55;;;21.70;99.90;;;;;;5923312;24;20029;-80
2021/09/01 10:39:15;;;;;;;11.85;9.77;;;21.80;99.90;;;;;;5901270;24;20032;-75
2021/09/01 10:41:56;;;;;;;13.80;9.95;;;21.80;99.90;;;;;;5921652;24;20025;-78
2021/09/01 10:44:25;;;;;;;12.68;9.95;;;21.50;99.90;;;;;;5922951;24;20036;-80
2021/09/01 10:46:53;;;;;;;18.80;11.70;;;21.50;99.90;;;;;;6102970;23;20016;-79
2021/09/01 10:49:25;;;;;;;14.35;9.63;;;21.40;99.90;;;;;;6182138;23;20028;-79
2021/09/01 10:51:55;;;;;;;12.73;9.45;;;21.40;99.90;;;;;;6182851;23;20016;-77
2021/09/01 10:54:34;;;;;;;13.35;9.35;;;21.40;99.90;;;;;;6182356;23;20017;-77
2021/09/01 10:57:06;;;;;;;12.10;8.57;;;21.60;99.90;;;;;;6182718;23;20111;-77
2021/09/01 10:59:39;;;;;;;13.73;9.05;;;21.70;99.90;;;;;;6181954;23;20021;-77
2021/09/01 11:02:12;;;;;;;11.88;8.35;;;21.70;99.90;;;;;;6182075;23;20071;-80
2021/09/01 11:04:50;;;;;;;10.13;7.70;;;21.70;99.90;;;;;;6182627;23;20013;-78
2021/09/01 11:07:31;;;;;;;8.90;7.57;;;21.70;99.90;;;;;;6181444;23;20107;-79
2021/09/01 11:10:01;;;;;;;11.10;7.93;;;21.80;99.90;;;;;;6182928;23;20071;-79
2021/09/01 11:12:30;;;;;;;11.25;7.63;;;21.90;99.90;;;;;;6182147;23;20495;-79
2021/09/01 11:14:57;;;;;;;8.63;6.65;;;22.00;99.90;;;;;;6183227;23;20017;-80
2021/09/01 11:17:27;;;;;;;11.50;7.00;;;22.10;99.90;;;;;;6181927;23;20040;-80
2021/09/01 11:20:00;;;;;;;10.35;6.63;;;22.20;99.90;;;;;;6185054;23;20025;-78
2021/09/01 11:22:29;;;;;;;11.50;6.60;;;22.40;99.90;;;;;;6183802;23;20021;-79
2021/09/01 11:25:11;;;;;;;9.05;6.60;;;22.50;99.90;;;;;;6184916;23;20024;-80
2021/09/01 11:27:48;;;;;;;10.73;6.97;;;22.60;99.90;;;;;;6183986;23;20083;-78
2021/09/01 11:30:16;;;;;;;11.52;6.78;;;22.70;99.90;;;;;;6183978;23;20446;-80
2021/09/01 11:32:44;;;;;;;10.65;6.90;;;22.80;99.90;;;;;;6185050;23;20056;-80
2021/09/01 11:35:20;;;;;;;12.70;7.07;;;22.90;99.90;;;;;;6183744;23;20461;-78
2021/09/01 11:37:58;;;;;;;10.15;7.18;;;23.10;99.90;;;;;;6184574;23;20092;-80
2021/09/01 11:40:38;;;;;;;9.35;6.25;;;23.10;99.90;;;;;;6184044;23;20021;-80
2021/09/01 11:43:13;;;;;;;11.15;7.07;;;23.20;99.90;;;;;;6183918;23;20021;-78
2021/09/01 11:45:48;;;;;;;9.15;6.65;;;23.20;99.90;;;;;;6184589;23;20040;-81
2021/09/01 11:48:15;;;;;;;9.73;6.38;;;23.20;99.90;;;;;;6184039;23;20025;-80
2021/09/01 11:50:47;;;;;;;10.63;6.40;;;23.20;99.90;;;;;;6184752;23;20469;-80
2021/09/01 11:53:42;;;;;;;9.23;5.97;;;23.30;99.90;;;;;;6184338;23;20025;-80
2021/09/01 11:56:10;;;;;;;9.95;6.32;;;23.40;99.90;;;;;;6183602;23;20028;-80
2021/09/01 11:58:37;;;;;;;11.75;7.20;;;23.50;99.90;;;;;;6184233;23;20036;-79
2021/09/01 12:01:06;;;;;;;12.07;7.50;;;23.30;99.90;;;;;;6183550;23;20021;-76
2021/09/01 12:03:33;;;;;;;12.15;6.40;;;23.20;99.90;;;;;;6184450;23;20088;-80
2021/09/01 12:06:32;;;;;;;8.52;5.88;;;23.20;99.90;;;;;;6183825;23;20025;-80
2021/09/01 12:08:59;;;;;;;;;;;23.10;99.90;;;;;;6185110;23;20052;-79
2021/09/01 12:11:29;;;;;;;12.45;7.95;;;22.90;99.90;;;;;;6183752;23;19916;-80
2021/09/01 12:14:02;;;;;;;8.60;6.43;;;22.70;99.90;;;;;;6184516;23;20025;-77
2021/09/01 12:16:31;;;;;;;9.75;6.20;;;22.60;99.90;;;;;;6183580;23;20036;-80
2021/09/01 12:19:03;;;;;;;12.13;6.82;;;22.60;99.90;;;;;;6184379;23;20025;-80
2021/09/01 12:21:54;;;;;;;10.27;6.63;;;22.70;99.90;;;;;;6183456;23;20025;-79
2021/09/01 12:24:32;;;;;;;9.85;6.38;;;22.80;99.90;;;;;;6174833;23;20021;-80
2021/09/01 12:27:07;;;;;;;;;;;22.70;99.90;;;;;;6184782;23;20366;-80
2021/09/01 12:29:49;;;;;;;11.10;7.55;;;22.60;99.90;;;;;;6183685;23;19923;-80
2021/09/01 12:32:18;;;;;;;9.40;5.88;;;22.60;99.90;;;;;;6183633;23;20021;-78
2021/09/01 12:34:55;;;;;;;8.13;6.45;;;22.60;99.90;;;;;;6184097;23;20052;-80
2021/09/01 12:37:30;;;;;;;9.77;5.82;;;22.80;99.90;;;;;;6182942;23;20373;-80
2021/09/01 12:40:01;;;;;;;10.90;6.22;;;22.90;99.90;;;;;;6157029;23;20048;-80
2021/09/01 12:43:21;;;;;;;7.75;5.72;;;23.00;99.90;;;;;;6139880;23;20072;-82
2021/09/01 12:46:07;;;;;;;10.10;6.55;;;23.10;99.90;;;;;;6093099;23;20033;-81
2021/09/01 12:48:52;;;;;;;9.15;6.28;;;23.10;99.90;;;;;;6176867;23;20442;-80
2021/09/01 12:51:38;;;;;;;13.65;6.10;;;23.30;99.90;;;;;;6166587;23;20059;-82
2021/09/01 12:54:23;;;;;;;12.30;6.68;;;23.30;99.90;;;;;;6154815;23;20017;-79